sensor_id;sensor_type;location;lat;lon;timestamp;noise_LAeq;noise_LA_min;noise_LA_max;noise_LA01;noise_LA95
37163;Laerm;23057;48.554;14.454;2023-02-19T00:00:37;50.15;49.04;52.71;;
37163;Laerm;23057;48.554;14.454;2023-02-19T00:03:07;50.11;48.98;52.22;;
37163;Laerm;23057;48.554;14.454;2023-02-19T00:05:38;50.07;49.00;51.11;;
37163;Laerm;23057;48.554;14.454;2023-02-19T00:08:09;50.07;48.96;51.71;;
37163;Laerm;23057;48.554;14.454;2023-02-19T00:10:39;50.08;48.88;51.47;;
37163;Laerm;23057;48.554;14.454;2023-02-19T00:13:10;50.11;49.10;52.09;;
37163;Laerm;23057;48.554;14.454;2023-02-19T00:15:41;50.13;48.92;51.34;;
37163;Laerm;23057;48.554;14.454;2023-02-19T00:18:12;50.14;49.02;51.56;;
37163;Laerm;23057;48.554;14.454;2023-02-19T00:20:42;50.15;49.00;51.63;;
37163;Laerm;23057;48.554;14.454;2023-02-19T00:23:13;50.15;48.96;51.72;;
37163;Laerm;23057;48.554;14.454;2023-02-19T00:25:44;50.14;49.02;51.77;;
37163;Laerm;23057;48.554;14.454;2023-02-19T00:28:15;50.15;49.14;51.59;;
37163;Laerm;23057;48.554;14.454;2023-02-19T00:30:45;50.16;49.04;51.62;;
37163;Laerm;23057;48.554;14.454;2023-02-19T00:33:17;50.11;49.00;51.93;;
37163;Laerm;23057;48.554;14.454;2023-02-19T00:35:48;50.12;48.96;51.34;;
37163;Laerm;23057;48.554;14.454;2023-02-19T00:38:19;50.14;49.08;51.40;;
37163;Laerm;23057;48.554;14.454;2023-02-19T00:40:49;50.10;48.91;51.16;;
37163;Laerm;23057;48.554;14.454;2023-02-19T00:43:20;50.11;48.92;52.00;;
37163;Laerm;23057;48.554;14.454;2023-02-19T00:45:51;50.12;49.03;51.24;;
37163;Laerm;23057;48.554;14.454;2023-02-19T00:48:22;50.11;48.80;51.22;;
37163;Laerm;23057;48.554;14.454;2023-02-19T00:50:53;50.12;49.10;51.22;;
37163;Laerm;23057;48.554;14.454;2023-02-19T00:53:23;50.12;49.04;51.25;;
37163;Laerm;23057;48.554;14.454;2023-02-19T00:55:54;50.12;48.98;51.12;;
37163;Laerm;23057;48.554;14.454;2023-02-19T00:58:25;50.11;48.95;51.26;;
37163;Laerm;23057;48.554;14.454;2023-02-19T01:00:56;50.09;49.04;51.47;;
37163;Laerm;23057;48.554;14.454;2023-02-19T01:03:26;50.09;48.98;51.52;;
37163;Laerm;23057;48.554;14.454;2023-02-19T01:05:57;50.08;48.80;51.29;;
37163;Laerm;23057;48.554;14.454;2023-02-19T01:08:29;50.09;48.95;51.45;;
37163;Laerm;23057;48.554;14.454;2023-02-19T01:11:03;50.10;48.84;51.40;;
37163;Laerm;23057;48.554;14.454;2023-02-19T01:13:35;50.09;48.87;51.91;;
37163;Laerm;23057;48.554;14.454;2023-02-19T01:16:11;50.11;48.85;51.22;;
37163;Laerm;23057;48.554;14.454;2023-02-19T01:18:44;50.10;48.77;51.20;;
37163;Laerm;23057;48.554;14.454;2023-02-19T01:21:19;50.09;49.07;51.68;;
37163;Laerm;23057;48.554;14.454;2023-02-19T01:23:52;50.11;48.87;53.66;;
37163;Laerm;23057;48.554;14.454;2023-02-19T01:26:27;50.11;49.06;51.29;;
37163;Laerm;23057;48.554;14.454;2023-02-19T01:28:59;50.10;48.99;51.48;;
37163;Laerm;23057;48.554;14.454;2023-02-19T01:31:30;50.10;48.98;51.18;;
37163;Laerm;23057;48.554;14.454;2023-02-19T01:34:03;50.09;48.91;51.46;;
37163;Laerm;23057;48.554;14.454;2023-02-19T01:36:34;50.10;48.91;51.26;;
37163;Laerm;23057;48.554;14.454;2023-02-19T01:39:06;50.11;48.71;51.40;;
37163;Laerm;23057;48.554;14.454;2023-02-19T01:41:39;50.11;48.98;51.46;;
37163;Laerm;23057;48.554;14.454;2023-02-19T01:46:43;50.11;49.07;51.40;;
37163;Laerm;23057;48.554;14.454;2023-02-19T01:49:26;50.14;48.95;51.09;;
37163;Laerm;23057;48.554;14.454;2023-02-19T01:52:16;50.12;48.93;51.20;;
37163;Laerm;23057;48.554;14.454;2023-02-19T01:54:52;50.11;48.94;52.39;;
37163;Laerm;23057;48.554;14.454;2023-02-19T01:57:27;50.11;49.07;51.42;;
37163;Laerm;23057;48.554;14.454;2023-02-19T02:00:09;50.11;49.10;51.36;;
37163;Laerm;23057;48.554;14.454;2023-02-19T02:02:47;50.12;49.02;51.44;;
37163;Laerm;23057;48.554;14.454;2023-02-19T02:08:02;50.09;48.99;51.30;;
37163;Laerm;23057;48.554;14.454;2023-02-19T02:10:52;50.10;48.96;51.60;;
37163;Laerm;23057;48.554;14.454;2023-02-19T02:13:24;50.09;49.06;51.49;;
37163;Laerm;23057;48.554;14.454;2023-02-19T02:16:16;50.11;48.96;51.23;;
37163;Laerm;23057;48.554;14.454;2023-02-19T02:19:39;50.10;48.98;51.61;;
37163;Laerm;23057;48.554;14.454;2023-02-19T02:22:28;50.13;48.98;51.24;;
37163;Laerm;23057;48.554;14.454;2023-02-19T02:28:27;50.09;48.99;51.20;;
37163;Laerm;23057;48.554;14.454;2023-02-19T02:31:12;50.10;49.03;51.22;;
37163;Laerm;23057;48.554;14.454;2023-02-19T02:34:13;50.12;48.91;51.98;;
37163;Laerm;23057;48.554;14.454;2023-02-19T02:36:52;50.15;48.99;51.22;;
37163;Laerm;23057;48.554;14.454;2023-02-19T02:39:26;50.11;49.02;51.26;;
37163;Laerm;23057;48.554;14.454;2023-02-19T02:41:59;50.12;49.03;51.68;;
37163;Laerm;23057;48.554;14.454;2023-02-19T02:44:48;50.17;48.96;51.59;;
37163;Laerm;23057;48.554;14.454;2023-02-19T02:47:50;50.21;48.94;52.11;;
37163;Laerm;23057;48.554;14.454;2023-02-19T02:50:36;50.18;48.77;51.51;;
37163;Laerm;23057;48.554;14.454;2023-02-19T02:53:27;50.18;49.06;51.44;;
37163;Laerm;23057;48.554;14.454;2023-02-19T02:56:19;50.17;49.07;52.20;;
37163;Laerm;23057;48.554;14.454;2023-02-19T02:58:53;50.20;49.12;51.33;;
37163;Laerm;23057;48.554;14.454;2023-02-19T03:01:42;50.16;48.95;51.37;;
37163;Laerm;23057;48.554;14.454;2023-02-19T03:07:48;50.15;49.02;51.16;;
37163;Laerm;23057;48.554;14.454;2023-02-19T03:11:00;50.17;49.08;51.40;;
37163;Laerm;23057;48.554;14.454;2023-02-19T03:14:25;50.15;49.11;52.21;;
37163;Laerm;23057;48.554;14.454;2023-02-19T03:17:21;50.12;48.95;51.54;;
37163;Laerm;23057;48.554;14.454;2023-02-19T03:20:15;50.14;48.96;51.28;;
37163;Laerm;23057;48.554;14.454;2023-02-19T03:22:52;50.16;49.07;51.67;;
37163;Laerm;23057;48.554;14.454;2023-02-19T03:25:29;50.15;49.00;51.40;;
37163;Laerm;23057;48.554;14.454;2023-02-19T03:28:23;50.16;48.99;51.47;;
37163;Laerm;23057;48.554;14.454;2023-02-19T03:31:20;50.16;49.00;51.26;;
37163;Laerm;23057;48.554;14.454;2023-02-19T03:34:20;50.16;48.92;51.55;;
37163;Laerm;23057;48.554;14.454;2023-02-19T03:37:20;50.14;48.91;51.48;;
37163;Laerm;23057;48.554;14.454;2023-02-19T03:39:55;50.12;48.81;51.34;;
37163;Laerm;23057;48.554;14.454;2023-02-19T03:43:05;50.12;49.02;51.49;;
37163;Laerm;23057;48.554;14.454;2023-02-19T03:46:35;50.10;48.99;51.56;;
37163;Laerm;23057;48.554;14.454;2023-02-19T03:49:01;50.13;48.96;51.36;;
37163;Laerm;23057;48.554;14.454;2023-02-19T03:51:52;50.09;48.91;51.19;;
37163;Laerm;23057;48.554;14.454;2023-02-19T03:57:17;50.10;48.91;51.22;;
37163;Laerm;23057;48.554;14.454;2023-02-19T03:59:58;50.13;49.08;51.11;;
37163;Laerm;23057;48.554;14.454;2023-02-19T04:02:41;50.12;49.00;51.67;;
37163;Laerm;23057;48.554;14.454;2023-02-19T04:05:20;50.15;49.07;51.25;;
37163;Laerm;23057;48.554;14.454;2023-02-19T04:07:57;50.12;48.94;51.70;;
37163;Laerm;23057;48.554;14.454;2023-02-19T04:10:29;50.13;48.87;51.41;;
37163;Laerm;23057;48.554;14.454;2023-02-19T04:13:09;50.14;48.87;51.55;;
37163;Laerm;23057;48.554;14.454;2023-02-19T04:15:44;50.13;49.08;51.84;;
37163;Laerm;23057;48.554;14.454;2023-02-19T04:18:25;50.13;49.03;51.93;;
37163;Laerm;23057;48.554;14.454;2023-02-19T04:20:59;50.15;49.10;51.86;;
37163;Laerm;23057;48.554;14.454;2023-02-19T04:23:38;50.14;49.15;51.59;;
37163;Laerm;23057;48.554;14.454;2023-02-19T04:26:12;50.14;48.95;51.93;;
37163;Laerm;23057;48.554;14.454;2023-02-19T04:28:45;50.14;48.88;52.09;;
37163;Laerm;23057;48.554;14.454;2023-02-19T04:31:16;50.15;49.12;51.59;;
37163;Laerm;23057;48.554;14.454;2023-02-19T04:33:47;50.13;48.99;51.70;;
37163;Laerm;23057;48.554;14.454;2023-02-19T04:36:18;50.11;48.88;51.43;;
37163;Laerm;23057;48.554;14.454;2023-02-19T04:38:48;50.11;49.06;51.33;;
37163;Laerm;23057;48.554;14.454;2023-02-19T04:41:19;50.12;49.03;52.50;;
37163;Laerm;23057;48.554;14.454;2023-02-19T04:43:50;50.12;49.07;51.87;;
37163;Laerm;23057;48.554;14.454;2023-02-19T04:46:20;50.11;48.87;52.38;;
37163;Laerm;23057;48.554;14.454;2023-02-19T04:48:51;50.11;49.03;51.71;;
37163;Laerm;23057;48.554;14.454;2023-02-19T04:51:22;50.11;49.03;51.47;;
37163;Laerm;23057;48.554;14.454;2023-02-19T04:53:53;50.11;48.85;51.73;;
37163;Laerm;23057;48.554;14.454;2023-02-19T04:56:25;50.10;49.11;51.84;;
37163;Laerm;23057;48.554;14.454;2023-02-19T04:58:56;50.12;48.88;51.62;;
37163;Laerm;23057;48.554;14.454;2023-02-19T05:01:27;50.08;49.08;51.56;;
37163;Laerm;23057;48.554;14.454;2023-02-19T05:03:58;50.13;49.03;51.84;;
37163;Laerm;23057;48.554;14.454;2023-02-19T05:06:29;50.13;49.08;51.85;;
37163;Laerm;23057;48.554;14.454;2023-02-19T05:08:59;50.08;48.70;51.15;;
37163;Laerm;23057;48.554;14.454;2023-02-19T05:11:30;50.10;49.10;52.36;;
37163;Laerm;23057;48.554;14.454;2023-02-19T05:14:01;50.12;48.94;51.48;;
37163;Laerm;23057;48.554;14.454;2023-02-19T05:16:32;50.13;49.03;51.71;;
37163;Laerm;23057;48.554;14.454;2023-02-19T05:19:03;50.12;48.88;51.37;;
37163;Laerm;23057;48.554;14.454;2023-02-19T05:21:33;50.10;49.02;51.44;;
37163;Laerm;23057;48.554;14.454;2023-02-19T05:24:07;50.08;48.90;51.10;;
37163;Laerm;23057;48.554;14.454;2023-02-19T05:26:37;50.08;49.02;51.25;;
37163;Laerm;23057;48.554;14.454;2023-02-19T05:29:08;50.08;48.99;51.27;;
37163;Laerm;23057;48.554;14.454;2023-02-19T05:31:39;50.08;48.99;51.47;;
37163;Laerm;23057;48.554;14.454;2023-02-19T05:34:10;50.08;49.04;51.33;;
37163;Laerm;23057;48.554;14.454;2023-02-19T05:36:40;50.08;48.95;51.49;;
37163;Laerm;23057;48.554;14.454;2023-02-19T05:39:11;50.08;48.98;51.34;;
37163;Laerm;23057;48.554;14.454;2023-02-19T05:41:42;50.08;48.98;51.37;;
37163;Laerm;23057;48.554;14.454;2023-02-19T05:44:13;50.07;48.98;51.67;;
37163;Laerm;23057;48.554;14.454;2023-02-19T05:46:43;50.08;48.90;51.38;;
37163;Laerm;23057;48.554;14.454;2023-02-19T05:49:14;50.09;48.92;51.40;;
37163;Laerm;23057;48.554;14.454;2023-02-19T05:51:45;50.10;48.91;51.39;;
37163;Laerm;23057;48.554;14.454;2023-02-19T05:54:15;50.09;48.99;51.62;;
37163;Laerm;23057;48.554;14.454;2023-02-19T05:56:46;50.09;48.91;51.42;;
37163;Laerm;23057;48.554;14.454;2023-02-19T05:59:21;50.09;48.94;51.64;;
37163;Laerm;23057;48.554;14.454;2023-02-19T06:01:53;50.10;48.92;51.39;;
37163;Laerm;23057;48.554;14.454;2023-02-19T06:04:24;50.09;49.02;52.11;;
37163;Laerm;23057;48.554;14.454;2023-02-19T06:06:55;50.08;48.96;51.20;;
37163;Laerm;23057;48.554;14.454;2023-02-19T06:09:26;50.08;48.88;51.26;;
37163;Laerm;23057;48.554;14.454;2023-02-19T06:11:56;50.08;48.91;51.13;;
37163;Laerm;23057;48.554;14.454;2023-02-19T06:14:27;50.09;49.08;52.34;;
37163;Laerm;23057;48.554;14.454;2023-02-19T06:16:58;50.10;49.04;52.23;;
37163;Laerm;23057;48.554;14.454;2023-02-19T06:19:29;50.09;48.87;51.93;;
37163;Laerm;23057;48.554;14.454;2023-02-19T06:21:59;50.01;49.07;51.23;;
37163;Laerm;23057;48.554;14.454;2023-02-19T06:24:30;49.98;49.04;51.77;;
37163;Laerm;23057;48.554;14.454;2023-02-19T06:27:05;49.97;48.80;51.46;;
37163;Laerm;23057;48.554;14.454;2023-02-19T06:29:36;49.96;48.95;51.33;;
37163;Laerm;23057;48.554;14.454;2023-02-19T06:32:09;49.95;48.71;51.22;;
37163;Laerm;23057;48.554;14.454;2023-02-19T06:34:40;49.96;48.96;51.75;;
37163;Laerm;23057;48.554;14.454;2023-02-19T06:37:11;49.98;48.94;51.89;;
37163;Laerm;23057;48.554;14.454;2023-02-19T06:39:42;49.97;48.91;50.92;;
37163;Laerm;23057;48.554;14.454;2023-02-19T06:42:13;49.97;49.02;51.43;;
37163;Laerm;23057;48.554;14.454;2023-02-19T06:44:44;49.98;48.88;51.47;;
37163;Laerm;23057;48.554;14.454;2023-02-19T06:47:14;49.97;48.88;51.48;;
37163;Laerm;23057;48.554;14.454;2023-02-19T06:49:45;49.97;48.74;51.40;;
37163;Laerm;23057;48.554;14.454;2023-02-19T06:52:16;49.96;48.85;51.39;;
37163;Laerm;23057;48.554;14.454;2023-02-19T06:54:46;49.96;48.88;51.56;;
37163;Laerm;23057;48.554;14.454;2023-02-19T06:57:17;49.96;48.69;51.82;;
37163;Laerm;23057;48.554;14.454;2023-02-19T06:59:48;49.96;48.80;51.22;;
37163;Laerm;23057;48.554;14.454;2023-02-19T07:02:19;49.97;49.02;51.40;;
37163;Laerm;23057;48.554;14.454;2023-02-19T07:04:49;50.00;48.83;52.19;;
37163;Laerm;23057;48.554;14.454;2023-02-19T07:07:20;50.02;48.85;52.11;;
37163;Laerm;23057;48.554;14.454;2023-02-19T07:09:51;50.06;49.00;52.14;;
37163;Laerm;23057;48.554;14.454;2023-02-19T07:12:22;50.02;48.98;51.94;;
37163;Laerm;23057;48.554;14.454;2023-02-19T07:14:52;50.02;48.93;52.04;;
37163;Laerm;23057;48.554;14.454;2023-02-19T07:17:23;50.01;48.95;52.03;;
37163;Laerm;23057;48.554;14.454;2023-02-19T07:19:54;49.99;48.81;51.76;;
37163;Laerm;23057;48.554;14.454;2023-02-19T07:22:24;50.00;48.77;52.90;;
37163;Laerm;23057;48.554;14.454;2023-02-19T07:24:55;50.01;48.95;54.75;;
37163;Laerm;23057;48.554;14.454;2023-02-19T07:27:26;50.04;48.94;52.22;;
37163;Laerm;23057;48.554;14.454;2023-02-19T07:29:57;50.07;48.83;52.23;;
37163;Laerm;23057;48.554;14.454;2023-02-19T07:32:28;50.06;48.63;51.97;;
37163;Laerm;23057;48.554;14.454;2023-02-19T07:34:59;50.04;48.84;52.13;;
37163;Laerm;23057;48.554;14.454;2023-02-19T07:37:30;50.05;48.76;52.43;;
37163;Laerm;23057;48.554;14.454;2023-02-19T07:40:01;50.05;48.91;52.11;;
37163;Laerm;23057;48.554;14.454;2023-02-19T07:42:32;50.05;48.90;52.86;;
37163;Laerm;23057;48.554;14.454;2023-02-19T07:45:03;50.06;49.04;52.19;;
37163;Laerm;23057;48.554;14.454;2023-02-19T07:47:34;50.06;48.95;52.42;;
37163;Laerm;23057;48.554;14.454;2023-02-19T07:50:05;50.06;49.10;52.09;;
37163;Laerm;23057;48.554;14.454;2023-02-19T07:52:36;50.07;48.81;52.13;;
37163;Laerm;23057;48.554;14.454;2023-02-19T07:55:06;50.07;49.00;51.93;;
37163;Laerm;23057;48.554;14.454;2023-02-19T07:57:37;50.05;48.94;52.17;;
37163;Laerm;23057;48.554;14.454;2023-02-19T08:00:09;50.07;48.88;52.08;;
37163;Laerm;23057;48.554;14.454;2023-02-19T08:02:40;50.06;48.94;52.10;;
37163;Laerm;23057;48.554;14.454;2023-02-19T08:05:37;50.09;49.00;52.28;;
37163;Laerm;23057;48.554;14.454;2023-02-19T08:08:12;50.10;48.77;51.68;;
37163;Laerm;23057;48.554;14.454;2023-02-19T08:10:43;50.09;49.14;51.40;;
37163;Laerm;23057;48.554;14.454;2023-02-19T08:13:32;50.08;48.81;51.44;;
37163;Laerm;23057;48.554;14.454;2023-02-19T08:18:34;50.13;49.08;51.31;;
37163;Laerm;23057;48.554;14.454;2023-02-19T08:21:05;50.11;48.99;51.33;;
37163;Laerm;23057;48.554;14.454;2023-02-19T08:23:36;50.14;49.08;51.61;;
37163;Laerm;23057;48.554;14.454;2023-02-19T08:26:07;50.10;48.96;51.33;;
37163;Laerm;23057;48.554;14.454;2023-02-19T08:28:39;50.07;48.94;51.04;;
37163;Laerm;23057;48.554;14.454;2023-02-19T08:31:11;50.07;48.67;51.63;;
37163;Laerm;23057;48.554;14.454;2023-02-19T08:33:42;50.05;48.77;51.92;;
37163;Laerm;23057;48.554;14.454;2023-02-19T08:36:13;50.10;49.11;52.42;;
37163;Laerm;23057;48.554;14.454;2023-02-19T08:38:43;50.08;49.00;52.05;;
37163;Laerm;23057;48.554;14.454;2023-02-19T08:41:14;50.05;49.04;51.52;;
37163;Laerm;23057;48.554;14.454;2023-02-19T08:43:45;50.05;48.92;52.04;;
37163;Laerm;23057;48.554;14.454;2023-02-19T08:46:16;50.04;48.99;51.32;;
37163;Laerm;23057;48.554;14.454;2023-02-19T08:48:47;50.04;48.73;51.36;;
37163;Laerm;23057;48.554;14.454;2023-02-19T08:51:18;50.07;49.02;51.80;;
37163;Laerm;23057;48.554;14.454;2023-02-19T08:53:48;50.07;48.83;51.98;;
37163;Laerm;23057;48.554;14.454;2023-02-19T08:56:19;50.06;48.95;51.57;;
37163;Laerm;23057;48.554;14.454;2023-02-19T08:58:50;50.06;49.04;51.20;;
37163;Laerm;23057;48.554;14.454;2023-02-19T09:01:20;50.08;48.96;51.41;;
37163;Laerm;23057;48.554;14.454;2023-02-19T09:03:52;50.08;49.00;51.47;;
37163;Laerm;23057;48.554;14.454;2023-02-19T09:06:22;50.09;48.98;51.67;;
37163;Laerm;23057;48.554;14.454;2023-02-19T09:08:53;50.11;49.08;51.76;;
37163;Laerm;23057;48.554;14.454;2023-02-19T09:11:24;50.12;48.90;51.66;;
37163;Laerm;23057;48.554;14.454;2023-02-19T09:13:56;50.11;48.55;51.78;;
37163;Laerm;23057;48.554;14.454;2023-02-19T09:16:27;50.09;48.88;51.58;;
37163;Laerm;23057;48.554;14.454;2023-02-19T09:18:57;50.09;48.96;51.60;;
37163;Laerm;23057;48.554;14.454;2023-02-19T09:21:28;50.09;48.96;51.19;;
37163;Laerm;23057;48.554;14.454;2023-02-19T09:23:59;50.09;49.04;51.86;;
37163;Laerm;23057;48.554;14.454;2023-02-19T09:26:30;50.08;48.91;51.30;;
37163;Laerm;23057;48.554;14.454;2023-02-19T09:29:00;50.07;48.91;51.38;;
37163;Laerm;23057;48.554;14.454;2023-02-19T09:31:31;50.08;49.04;51.86;;
37163;Laerm;23057;48.554;14.454;2023-02-19T09:34:04;50.09;48.90;51.57;;
37163;Laerm;23057;48.554;14.454;2023-02-19T09:36:35;50.10;48.88;51.42;;
37163;Laerm;23057;48.554;14.454;2023-02-19T09:39:08;50.12;48.81;51.39;;
37163;Laerm;23057;48.554;14.454;2023-02-19T09:41:50;50.11;48.81;51.21;;
37163;Laerm;23057;48.554;14.454;2023-02-19T09:44:29;50.07;49.06;51.79;;
37163;Laerm;23057;48.554;14.454;2023-02-19T09:47:11;50.04;48.88;51.38;;
37163;Laerm;23057;48.554;14.454;2023-02-19T09:49:48;50.06;48.92;51.38;;
37163;Laerm;23057;48.554;14.454;2023-02-19T09:52:34;50.10;48.95;51.33;;
37163;Laerm;23057;48.554;14.454;2023-02-19T09:55:17;50.10;48.98;51.95;;
37163;Laerm;23057;48.554;14.454;2023-02-19T09:57:51;50.09;49.16;51.68;;
37163;Laerm;23057;48.554;14.454;2023-02-19T10:00:24;50.08;48.98;51.72;;
37163;Laerm;23057;48.554;14.454;2023-02-19T10:03:08;50.06;48.87;51.10;;
37163;Laerm;23057;48.554;14.454;2023-02-19T10:05:40;50.04;48.83;51.84;;
37163;Laerm;23057;48.554;14.454;2023-02-19T10:08:17;50.07;48.91;51.30;;
37163;Laerm;23057;48.554;14.454;2023-02-19T10:10:51;50.08;48.91;51.17;;
37163;Laerm;23057;48.554;14.454;2023-02-19T10:13:34;50.07;48.95;51.89;;
37163;Laerm;23057;48.554;14.454;2023-02-19T10:16:13;50.07;48.95;51.23;;
37163;Laerm;23057;48.554;14.454;2023-02-19T10:18:47;50.08;49.02;51.17;;
37163;Laerm;23057;48.554;14.454;2023-02-19T10:21:22;50.07;49.02;51.37;;
37163;Laerm;23057;48.554;14.454;2023-02-19T10:24:00;50.10;48.88;51.97;;
37163;Laerm;23057;48.554;14.454;2023-02-19T10:26:33;50.11;49.04;51.77;;
37163;Laerm;23057;48.554;14.454;2023-02-19T10:29:09;50.12;49.12;51.69;;
37163;Laerm;23057;48.554;14.454;2023-02-19T10:31:39;50.10;49.03;51.77;;
37163;Laerm;23057;48.554;14.454;2023-02-19T10:34:20;50.08;48.81;52.22;;
37163;Laerm;23057;48.554;14.454;2023-02-19T10:36:51;50.10;48.90;51.19;;
37163;Laerm;23057;48.554;14.454;2023-02-19T10:41:53;50.08;48.74;51.75;;
37163;Laerm;23057;48.554;14.454;2023-02-19T10:44:27;50.08;49.00;52.24;;
37163;Laerm;23057;48.554;14.454;2023-02-19T10:46:59;50.10;49.03;51.30;;
37163;Laerm;23057;48.554;14.454;2023-02-19T10:49:36;50.10;48.98;51.25;;
37163;Laerm;23057;48.554;14.454;2023-02-19T10:52:39;50.08;48.78;51.50;;
37163;Laerm;23057;48.554;14.454;2023-02-19T10:55:27;50.08;49.00;51.37;;
37163;Laerm;23057;48.554;14.454;2023-02-19T10:58:22;50.05;48.81;51.08;;
37163;Laerm;23057;48.554;14.454;2023-02-19T11:01:23;50.04;48.95;51.24;;
37163;Laerm;23057;48.554;14.454;2023-02-19T11:04:16;50.05;49.08;51.93;;
37163;Laerm;23057;48.554;14.454;2023-02-19T11:06:47;50.04;48.78;51.17;;
37163;Laerm;23057;48.554;14.454;2023-02-19T11:09:36;50.03;48.94;51.25;;
37163;Laerm;23057;48.554;14.454;2023-02-19T11:12:09;50.03;48.81;51.16;;
37163;Laerm;23057;48.554;14.454;2023-02-19T11:14:43;50.04;49.02;51.64;;
37163;Laerm;23057;48.554;14.454;2023-02-19T11:17:23;50.05;49.04;51.33;;
37163;Laerm;23057;48.554;14.454;2023-02-19T11:20:07;50.06;49.14;51.33;;
37163;Laerm;23057;48.554;14.454;2023-02-19T11:22:42;50.07;49.07;51.06;;
37163;Laerm;23057;48.554;14.454;2023-02-19T11:28:21;50.03;49.03;51.30;;
37163;Laerm;23057;48.554;14.454;2023-02-19T11:30:53;50.04;48.87;51.28;;
37163;Laerm;23057;48.554;14.454;2023-02-19T11:33:26;50.05;48.80;51.07;;
37163;Laerm;23057;48.554;14.454;2023-02-19T11:38:54;50.04;49.11;51.67;;
37163;Laerm;23057;48.554;14.454;2023-02-19T11:42:02;50.03;48.84;51.40;;
37163;Laerm;23057;48.554;14.454;2023-02-19T11:45:17;50.03;48.89;51.92;;
37163;Laerm;23057;48.554;14.454;2023-02-19T11:48:12;50.03;48.78;51.59;;
37163;Laerm;23057;48.554;14.454;2023-02-19T12:09:15;50.00;48.87;52.40;;
37163;Laerm;23057;48.554;14.454;2023-02-19T12:17:47;50.00;48.85;52.85;;
37163;Laerm;23057;48.554;14.454;2023-02-19T12:20:42;50.01;48.78;51.26;;
37163;Laerm;23057;48.554;14.454;2023-02-19T12:24:15;49.99;48.94;51.81;;
37163;Laerm;23057;48.554;14.454;2023-02-19T12:36:02;49.99;48.78;52.04;;
37163;Laerm;23057;48.554;14.454;2023-02-19T12:38:43;49.98;48.88;51.59;;
37163;Laerm;23057;48.554;14.454;2023-02-19T12:41:26;49.99;48.85;51.59;;
37163;Laerm;23057;48.554;14.454;2023-02-19T12:44:17;49.99;48.94;52.06;;
37163;Laerm;23057;48.554;14.454;2023-02-19T12:46:57;49.98;48.99;51.27;;
37163;Laerm;23057;48.554;14.454;2023-02-19T12:49:38;49.99;48.85;51.24;;
37163;Laerm;23057;48.554;14.454;2023-02-19T12:52:24;50.01;48.85;51.23;;
37163;Laerm;23057;48.554;14.454;2023-02-19T12:55:10;50.02;48.99;52.21;;
37163;Laerm;23057;48.554;14.454;2023-02-19T12:57:47;50.02;48.94;51.26;;
37163;Laerm;23057;48.554;14.454;2023-02-19T13:00:36;50.01;48.98;51.26;;
37163;Laerm;23057;48.554;14.454;2023-02-19T13:06:06;49.98;48.76;51.27;;
37163;Laerm;23057;48.554;14.454;2023-02-19T13:08:45;49.98;48.94;51.37;;
37163;Laerm;23057;48.554;14.454;2023-02-19T13:11:31;49.98;48.88;51.04;;
37163;Laerm;23057;48.554;14.454;2023-02-19T13:14:29;49.97;48.80;51.91;;
37163;Laerm;23057;48.554;14.454;2023-02-19T13:17:23;49.97;48.90;51.37;;
37163;Laerm;23057;48.554;14.454;2023-02-19T13:20:14;49.97;48.78;51.09;;
37163;Laerm;23057;48.554;14.454;2023-02-19T13:35:54;49.98;48.84;51.63;;
37163;Laerm;23057;48.554;14.454;2023-02-19T13:38:42;49.98;48.78;51.52;;
37163;Laerm;23057;48.554;14.454;2023-02-19T13:41:28;49.99;48.98;51.27;;
37163;Laerm;23057;48.554;14.454;2023-02-19T13:44:04;49.99;48.87;51.65;;
37163;Laerm;23057;48.554;14.454;2023-02-19T13:46:41;49.99;48.74;51.22;;
37163;Laerm;23057;48.554;14.454;2023-02-19T13:55:47;49.97;48.87;51.67;;
37163;Laerm;23057;48.554;14.454;2023-02-19T14:01:09;49.98;48.92;51.07;;
37163;Laerm;23057;48.554;14.454;2023-02-19T14:03:55;49.97;49.02;52.53;;
37163;Laerm;23057;48.554;14.454;2023-02-19T14:14:41;49.98;48.87;51.67;;
37163;Laerm;23057;48.554;14.454;2023-02-19T14:20:40;49.97;48.81;52.21;;
37163;Laerm;23057;48.554;14.454;2023-02-19T14:23:23;50.00;48.94;51.84;;
37163;Laerm;23057;48.554;14.454;2023-02-19T14:25:58;49.96;48.56;51.42;;
37163;Laerm;23057;48.554;14.454;2023-02-19T14:28:34;49.96;48.84;51.62;;
37163;Laerm;23057;48.554;14.454;2023-02-19T14:31:31;49.95;48.78;50.97;;
37163;Laerm;23057;48.554;14.454;2023-02-19T14:34:18;49.95;48.96;52.03;;
37163;Laerm;23057;48.554;14.454;2023-02-19T14:37:00;49.96;48.88;51.21;;
37163;Laerm;23057;48.554;14.454;2023-02-19T14:39:35;49.95;48.77;52.02;;
37163;Laerm;23057;48.554;14.454;2023-02-19T14:42:22;49.96;48.87;51.13;;
37163;Laerm;23057;48.554;14.454;2023-02-19T14:45:05;49.96;48.88;51.55;;
37163;Laerm;23057;48.554;14.454;2023-02-19T14:47:37;49.95;48.81;51.03;;
37163;Laerm;23057;48.554;14.454;2023-02-19T14:50:19;49.96;48.92;51.28;;
37163;Laerm;23057;48.554;14.454;2023-02-19T14:52:54;49.98;48.90;53.24;;
37163;Laerm;23057;48.554;14.454;2023-02-19T14:55:33;49.99;48.81;52.01;;
37163;Laerm;23057;48.554;14.454;2023-02-19T14:58:13;49.99;48.83;51.22;;
37163;Laerm;23057;48.554;14.454;2023-02-19T15:00:45;49.99;48.88;51.17;;
37163;Laerm;23057;48.554;14.454;2023-02-19T15:03:33;50.00;48.95;51.61;;
37163;Laerm;23057;48.554;14.454;2023-02-19T15:06:12;49.99;48.99;51.65;;
37163;Laerm;23057;48.554;14.454;2023-02-19T15:08:52;49.99;49.06;51.36;;
37163;Laerm;23057;48.554;14.454;2023-02-19T15:11:27;49.98;48.91;51.69;;
37163;Laerm;23057;48.554;14.454;2023-02-19T15:14:04;49.98;48.96;51.61;;
37163;Laerm;23057;48.554;14.454;2023-02-19T15:16:36;49.97;48.88;51.10;;
37163;Laerm;23057;48.554;14.454;2023-02-19T15:19:09;49.97;48.84;50.99;;
37163;Laerm;23057;48.554;14.454;2023-02-19T15:21:46;49.96;48.94;51.39;;
37163;Laerm;23057;48.554;14.454;2023-02-19T15:24:19;49.97;48.77;51.64;;
37163;Laerm;23057;48.554;14.454;2023-02-19T15:26:52;49.96;48.94;51.13;;
37163;Laerm;23057;48.554;14.454;2023-02-19T15:29:26;49.97;48.90;51.31;;
37163;Laerm;23057;48.554;14.454;2023-02-19T15:31:59;49.98;48.99;51.47;;
37163;Laerm;23057;48.554;14.454;2023-02-19T15:34:31;49.98;48.87;52.02;;
37163;Laerm;23057;48.554;14.454;2023-02-19T15:37:06;49.98;48.81;51.83;;
37163;Laerm;23057;48.554;14.454;2023-02-19T15:39:47;49.98;48.92;52.19;;
37163;Laerm;23057;48.554;14.454;2023-02-19T15:42:37;49.97;48.95;51.50;;
37163;Laerm;23057;48.554;14.454;2023-02-19T15:45:38;49.97;48.80;51.93;;
37163;Laerm;23057;48.554;14.454;2023-02-19T15:48:16;50.01;48.87;51.67;;
37163;Laerm;23057;48.554;14.454;2023-02-19T15:50:58;49.99;48.73;51.08;;
37163;Laerm;23057;48.554;14.454;2023-02-19T15:53:47;49.99;48.88;51.80;;
37163;Laerm;23057;48.554;14.454;2023-02-19T15:56:26;49.99;48.97;51.13;;
37163;Laerm;23057;48.554;14.454;2023-02-19T16:02:14;50.02;48.87;53.94;;
37163;Laerm;23057;48.554;14.454;2023-02-19T16:04:46;50.00;48.99;51.75;;